Time;durP1;ratioP1;P1;durP2;ratioP2;P2;SDS_P1;SDS_P2;PMS_P1;PMS_P2;Temp;Humidity;BMP_temperature;BMP_pressure;BME280_temperature;BME280_humidity;BME280_pressure;Samples;Min_cycle;Max_cycle;Signal;HPM_P1;HPM_P2
2022/06/30 00:00:39;;;;;;;3.85;3.08;;;;;;;20.36;72.35;100332.97;5020163;28;20065;-72
2022/06/30 00:03:05;;;;;;;3.85;2.90;;;;;;;20.40;71.93;100326.47;5018532;28;20042;-72
2022/06/30 00:05:30;;;;;;;4.35;3.17;;;;;;;20.31;72.30;100332.31;5022660;28;20094;-72
2022/06/30 00:07:56;;;;;;;4.30;3.30;;;;;;;20.29;72.41;100320.78;5020896;28;20029;-72
2022/06/30 00:10:22;;;;;;;4.53;3.30;;;;;;;20.26;72.93;100320.94;5021536;28;20557;-73
2022/06/30 00:12:48;;;;;;;4.78;3.35;;;;;;;20.25;72.35;100325.44;5017424;28;20467;-72
2022/06/30 00:15:13;;;;;;;6.95;3.00;;;;;;;20.25;71.93;100312.06;5022756;28;20041;-73
2022/06/30 00:17:39;;;;;;;6.30;3.08;;;;;;;20.30;71.48;100318.06;5023150;28;20037;-73
2022/06/30 00:20:04;;;;;;;6.10;2.88;;;;;;;20.36;71.52;100312.38;5023565;28;20514;-72
2022/06/30 00:22:30;;;;;;;3.35;2.60;;;;;;;20.40;70.98;100317.56;5024689;28;20044;-73
2022/06/30 00:24:55;;;;;;;4.20;3.15;;;;;;;20.39;71.02;100315.84;5023551;28;20026;-72
2022/06/30 00:27:20;;;;;;;5.55;2.80;;;;;;;20.33;71.81;100322.38;5020801;28;20722;-73
2022/06/30 00:29:46;;;;;;;4.13;2.80;;;;;;;20.32;71.91;100317.97;5022739;28;20056;-72
2022/06/30 00:32:11;;;;;;;3.58;2.67;;;;;;;20.36;70.73;100316.88;5019214;28;20037;-72
2022/06/30 00:34:37;;;;;;;3.95;2.70;;;;;;;20.35;70.19;100313.31;5023343;28;20042;-73
2022/06/30 00:37:02;;;;;;;4.20;2.70;;;;;;;20.38;69.89;100314.97;5018780;28;20041;-73
2022/06/30 00:39:29;;;;;;;4.10;2.60;;;;;;;20.36;69.62;100322.22;5022225;28;20083;-72
2022/06/30 00:41:55;;;;;;;4.28;2.75;;;;;;;20.34;69.41;100308.03;5029330;28;20353;-72
2022/06/30 00:44:21;;;;;;;4.18;2.85;;;;;;;20.39;69.40;100311.34;5020020;28;20397;-73
2022/06/30 00:46:46;;;;;;;4.10;2.50;;;;;;;20.41;68.75;100309.47;5021771;28;20090;-72
2022/06/30 00:49:12;;;;;;;4.28;2.90;;;;;;;20.35;69.57;100304.41;5016611;28;20050;-72
2022/06/30 00:51:37;;;;;;;4.32;3.25;;;;;;;20.27;69.55;100304.78;5024014;28;20064;-73
2022/06/30 00:54:04;;;;;;;4.13;3.22;;;;;;;20.17;69.83;100311.53;5029312;28;20095;-72
2022/06/30 00:56:30;;;;;;;4.78;3.15;;;;;;;20.18;70.66;100307.94;5026496;28;20065;-72
2022/06/30 00:59:00;;;;;;;4.65;3.20;;;;;;;20.18;70.80;100307.94;5026342;28;20770;-72
2022/06/30 01:01:26;;;;;;;5.75;3.25;;;;;;;20.14;71.13;100307.19;5023063;28;20045;-72
2022/06/30 01:03:55;;;;;;;4.75;3.33;;;;;;;20.13;71.34;100304.63;5029441;28;20025;-72
2022/06/30 01:06:21;;;;;;;4.10;3.40;;;;;;;20.13;71.18;100304.63;5025805;28;20091;-73
2022/06/30 01:08:47;;;;;;;5.78;3.55;;;;;;;20.09;71.57;100303.88;5023079;28;20040;-72
2022/06/30 01:13:57;;;;;;;3.70;3.20;;;;;;;19.98;71.99;100306.22;5023890;28;20038;-72
2022/06/30 01:16:22;;;;;;;5.82;3.78;;;;;;;19.93;72.57;100292.19;5026304;28;20488;-72
2022/06/30 01:18:48;;;;;;;4.45;3.40;;;;;;;19.88;72.53;100288.84;5023019;28;20461;-73
2022/06/30 01:21:13;;;;;;;4.65;3.38;;;;;;;19.85;72.80;100287.19;5025292;28;20834;-73
2022/06/30 01:23:39;;;;;;;5.38;3.65;;;;;;;19.86;72.84;100286.28;5022979;28;20044;-73
2022/06/30 01:26:04;;;;;;;4.97;3.20;;;;;;;19.87;72.76;100289.81;5024592;28;20490;-73
2022/06/30 01:28:29;;;;;;;3.65;3.08;;;;;;;19.93;72.17;100278.78;5025351;28;20041;-73
2022/06/30 01:30:56;;;;;;;4.88;2.90;;;;;;;19.89;71.74;100277.22;5022733;28;20030;-73
2022/06/30 01:33:21;;;;;;;4.47;3.10;;;;;;;19.92;71.60;100274.38;5026186;28;20033;-73
2022/06/30 01:35:46;;;;;;;4.35;2.83;;;;;;;19.94;71.30;100277.88;5023199;28;20405;-73
2022/06/30 01:38:12;;;;;;;4.13;2.90;;;;;;;19.95;71.54;100273.38;5023363;28;20041;-73
2022/06/30 01:40:37;;;;;;;4.03;2.90;;;;;;;19.96;71.70;100278.63;5024228;28;20041;-74
2022/06/30 01:43:05;;;;;;;4.10;3.00;;;;;;;20.03;70.86;100276.53;5023332;28;20892;-73
2022/06/30 01:45:31;;;;;;;7.05;3.20;;;;;;;20.06;70.92;100279.91;5025549;28;20030;-73
2022/06/30 01:47:56;;;;;;;6.22;2.80;;;;;;;19.99;71.28;100281.19;5022548;28;20042;-73
2022/06/30 01:50:30;;;;;;;4.50;3.20;;;;;;;19.97;71.23;100277.72;5025590;28;20110;-75
2022/06/30 01:52:57;;;;;;;4.10;3.10;;;;;;;19.89;71.76;100275.41;5023909;28;20029;-75
2022/06/30 01:55:23;;;;;;;4.47;2.85;;;;;;;19.78;72.06;100263.47;5022716;28;20046;-75
2022/06/30 01:57:49;;;;;;;5.07;3.30;;;;;;;19.78;72.01;100260.78;5025692;28;20044;-76
2022/06/30 02:00:18;;;;;;;5.22;3.22;;;;;;;19.77;72.08;100269.78;5021074;28;20116;-75
2022/06/30 02:02:44;;;;;;;3.83;3.03;;;;;;;19.78;72.32;100263.47;5023634;28;20037;-75
2022/06/30 02:05:10;;;;;;;5.65;2.92;;;;;;;19.77;72.19;100259.06;5024436;28;20121;-75
2022/06/30 02:07:36;;;;;;;3.65;2.65;;;;;;;19.76;72.09;100257.34;5024805;28;20040;-75
2022/06/30 02:10:07;;;;;;;3.50;2.70;;;;;;;19.81;71.80;100253.50;5026033;28;20046;-73
2022/06/30 02:12:45;;;;;;;4.28;3.15;;;;;;;19.82;71.35;100257.03;5023912;28;20037;-73
2022/06/30 02:15:18;;;;;;;5.18;3.28;;;;;;;19.85;70.95;100254.19;5025325;28;20446;-74
2022/06/30 02:17:45;;;;;;;3.65;2.90;;;;;;;19.86;70.80;100248.78;5021890;28;20420;-73
2022/06/30 02:20:12;;;;;;;3.67;3.17;;;;;;;19.82;70.76;100249.00;5023449;28;20484;-73
2022/06/30 02:22:39;;;;;;;3.33;2.40;;;;;;;19.77;70.73;100245.69;5023820;28;20034;-73
2022/06/30 02:25:06;;;;;;;3.67;2.67;;;;;;;19.77;70.64;100245.69;5021750;28;20026;-73
2022/06/30 02:27:31;;;;;;;4.30;2.67;;;;;;;19.72;70.26;100245.03;5024740;28;20487;-73
2022/06/30 02:29:57;;;;;;;4.38;2.72;;;;;;;19.74;69.83;100243.16;5022879;28;20038;-73
2022/06/30 02:32:22;;;;;;;4.85;2.83;;;;;;;19.77;70.17;100245.69;5022989;28;20040;-73
2022/06/30 02:34:49;;;;;;;3.70;2.72;;;;;;;19.73;70.27;100244.06;5026164;28;20132;-73
2022/06/30 02:37:14;;;;;;;4.82;3.00;;;;;;;19.70;70.39;100237.94;5030477;28;20065;-73
2022/06/30 02:39:40;;;;;;;4.18;3.08;;;;;;;19.74;70.75;100245.84;5021352;28;20112;-73
2022/06/30 02:42:06;;;;;;;3.63;2.78;;;;;;;19.74;71.09;100235.13;5023983;28;20068;-73
2022/06/30 02:44:31;;;;;;;4.32;2.67;;;;;;;19.69;71.42;100228.16;5028571;28;20104;-73
2022/06/30 02:46:57;;;;;;;5.05;3.10;;;;;;;19.68;70.67;100234.47;5025421;28;20042;-73
2022/06/30 02:49:22;;;;;;;5.43;3.50;;;;;;;19.67;70.99;100232.72;5022595;28;20049;-73
2022/06/30 02:51:48;;;;;;;3.97;3.10;;;;;;;19.67;71.16;100238.06;5023656;28;20033;-73
2022/06/30 02:54:14;;;;;;;3.88;3.35;;;;;;;19.68;71.52;100239.84;5020866;28;20060;-74
2022/06/30 02:56:40;;;;;;;3.80;2.78;;;;;;;19.61;71.26;100233.00;5024378;28;20472;-73
2022/06/30 02:59:05;;;;;;;5.40;3.22;;;;;;;19.46;72.70;100245.28;5022115;28;20120;-73
2022/06/30 03:01:31;;;;;;;4.78;2.97;;;;;;;19.42;72.41;100242.84;5022506;28;20041;-73
2022/06/30 03:03:56;;;;;;;4.55;2.83;;;;;;;19.39;72.71;100243.88;5023463;28;20030;-73
2022/06/30 03:06:21;;;;;;;5.90;2.72;;;;;;;19.37;72.43;100244.88;5022255;28;20112;-73
2022/06/30 03:08:47;;;;;;;7.03;3.35;;;;;;;19.33;73.37;100244.13;5020719;28;20488;-73
2022/06/30 03:11:16;;;;;;;4.30;3.20;;;;;;;19.34;73.26;100247.72;5019682;28;20492;-73
2022/06/30 03:13:44;;;;;;;4.30;3.05;;;;;;;19.35;72.88;100252.09;5023269;28;20033;-73
2022/06/30 03:16:13;;;;;;;4.85;3.05;;;;;;;19.29;73.07;100268.47;5022771;28;20038;-73
2022/06/30 03:18:40;;;;;;;3.80;2.85;;;;;;;19.31;73.32;100256.75;5021053;28;20049;-73
2022/06/30 03:21:06;;;;;;;5.68;3.08;;;;;;;19.37;73.92;100264.47;5020255;28;20034;-73
2022/06/30 03:23:32;;;;;;;4.55;3.50;;;;;;;19.49;72.88;100260.34;5023123;28;20112;-73
2022/06/30 03:25:57;;;;;;;4.05;3.00;;;;;;;19.54;72.83;100263.66;5022035;28;20499;-73
2022/06/30 03:28:23;;;;;;;5.97;3.83;;;;;;;19.58;73.25;100259.91;5024243;28;20029;-73
2022/06/30 03:30:48;;;;;;;5.05;3.10;;;;;;;19.57;73.85;100276.94;5028058;28;20041;-73
2022/06/30 03:33:14;;;;;;;3.88;3.00;;;;;;;19.64;73.50;100270.31;5020350;28;20381;-73
2022/06/30 03:35:40;;;;;;;5.18;3.90;;;;;;;19.76;73.13;100273.41;5023714;28;20041;-73
2022/06/30 03:38:06;;;;;;;6.07;4.75;;;;;;;19.79;73.58;100273.25;5017561;28;20087;-73
2022/06/30 03:40:32;;;;;;;7.13;5.00;;;;;;;19.81;73.47;100276.72;5022175;28;20072;-73
2022/06/30 03:42:57;;;;;;;5.35;4.30;;;;;;;19.78;73.51;100267.03;5021557;28;20141;-74
2022/06/30 03:45:22;;;;;;;4.72;3.65;;;;;;;19.82;73.20;100267.75;5025551;28;20045;-73
2022/06/30 03:47:48;;;;;;;5.35;3.92;;;;;;;19.87;73.39;100266.56;5030284;28;20052;-74
2022/06/30 03:50:13;;;;;;;4.43;3.67;;;;;;;19.86;73.31;100262.16;5027752;28;20041;-73
2022/06/30 03:52:38;;;;;;;4.53;3.75;;;;;;;19.81;74.09;100272.25;5021839;28;20116;-73
2022/06/30 03:55:04;;;;;;;4.72;3.45;;;;;;;19.79;73.76;100273.25;5024483;28;20029;-73
2022/06/30 03:57:29;;;;;;;5.53;4.10;;;;;;;19.73;74.72;100278.88;5026197;28;20042;-74
2022/06/30 03:59:55;;;;;;;6.43;3.72;;;;;;;19.71;75.16;100273.63;5025269;28;20045;-73
2022/06/30 04:02:20;;;;;;;5.00;4.30;;;;;;;19.73;74.34;100278.88;5020427;28;20041;-73
2022/06/30 04:04:45;;;;;;;4.43;3.55;;;;;;;19.71;74.91;100276.31;5023451;28;20124;-73
2022/06/30 04:07:11;;;;;;;5.22;3.50;;;;;;;19.65;75.23;100277.44;5020213;28;20080;-73
2022/06/30 04:09:36;;;;;;;5.72;3.65;;;;;;;19.62;75.56;100277.59;5024433;28;20073;-73
2022/06/30 04:12:01;;;;;;;5.30;4.20;;;;;;;19.60;76.24;100278.59;5025944;28;20036;-73
2022/06/30 04:14:27;;;;;;;7.07;4.88;;;;;;;19.57;76.17;100282.28;5019547;28;20034;-74
2022/06/30 04:16:52;;;;;;;5.80;5.05;;;;;;;19.61;76.14;100285.69;5021762;28;20052;-74
2022/06/30 04:19:17;;;;;;;6.90;4.50;;;;;;;19.61;76.78;100291.88;5029368;28;20033;-73
2022/06/30 04:21:43;;;;;;;7.50;4.40;;;;;;;19.63;76.83;100294.50;5025732;28;20037;-73
2022/06/30 04:24:08;;;;;;;7.50;5.80;;;;;;;19.66;76.84;100289.00;5024041;28;20033;-73
2022/06/30 04:26:34;;;;;;;8.02;6.68;;;;;;;19.58;76.90;100297.41;5021590;28;20021;-73
2022/06/30 04:28:59;;;;;;;5.82;4.97;;;;;;;19.66;76.87;100300.59;5023824;28;20064;-74
2022/06/30 04:34:08;;;;;;;13.40;6.57;;;;;;;19.74;77.30;100297.56;5023799;28;20041;-73
2022/06/30 04:36:33;;;;;;;9.05;7.03;;;;;;;19.74;77.71;100302.06;5027437;28;20112;-73
2022/06/30 04:38:58;;;;;;;7.00;6.30;;;;;;;19.79;77.41;100286.66;5023390;28;20064;-73
2022/06/30 04:41:24;;;;;;;7.45;6.00;;;;;;;19.90;76.57;100287.84;5022702;28;20449;-73
2022/06/30 04:43:51;;;;;;;7.15;5.63;;;;;;;19.93;76.82;100297.53;5024543;28;20462;-73
2022/06/30 04:46:16;;;;;;;7.10;5.53;;;;;;;19.99;76.72;100302.63;5028109;28;20033;-74
2022/06/30 04:48:42;;;;;;;7.35;5.90;;;;;;;20.07;75.95;100300.44;5021190;28;20524;-74
2022/06/30 04:51:08;;;;;;;7.65;5.72;;;;;;;20.14;75.25;100290.25;5020706;28;20488;-74
2022/06/30 04:53:33;;;;;;;6.93;5.63;;;;;;;20.23;75.09;100286.28;5021190;28;20876;-74
2022/06/30 04:55:59;;;;;;;10.10;6.70;;;;;;;20.25;73.95;100274.53;5026266;28;20215;-73
2022/06/30 04:58:24;;;;;;;6.32;5.72;;;;;;;20.37;73.53;100262.31;5025218;28;20098;-73
2022/06/30 05:00:50;;;;;;;5.40;4.90;;;;;;;20.46;73.64;100258.28;5024228;28;20076;-74
2022/06/30 05:03:15;;;;;;;6.35;5.75;;;;;;;20.47;73.33;100255.53;5025577;28;20034;-73
2022/06/30 05:05:40;;;;;;;9.25;6.25;;;;;;;20.56;72.12;100254.22;5027003;28;20111;-74
2022/06/30 05:08:06;;;;;;;6.55;5.55;;;;;;;20.62;71.94;100259.28;5027830;28;20060;-73
2022/06/30 05:10:31;;;;;;;7.20;5.43;;;;;;;20.73;71.46;100264.09;5020168;28;20041;-73
2022/06/30 05:12:56;;;;;;;7.13;6.43;;;;;;;20.81;70.83;100264.53;5016428;28;20103;-73
2022/06/30 05:15:22;;;;;;;8.55;7.05;;;;;;;20.95;70.76;100259.28;5022414;28;20048;-74
2022/06/30 05:17:47;;;;;;;6.35;5.45;;;;;;;21.01;69.96;100256.31;5015003;28;20033;-74
2022/06/30 05:20:12;;;;;;;9.98;8.98;;;;;;;20.96;69.53;100249.47;5002040;28;20085;-73
2022/06/30 05:22:38;;;;;;;14.20;9.02;;;;;;;21.10;68.91;100248.69;5020314;28;20052;-74
2022/06/30 05:27:48;;;;;;;6.15;4.95;;;;;;;21.26;67.90;100249.59;5020227;28;20041;-74
2022/06/30 05:30:15;;;;;;;6.28;4.82;;;;;;;21.32;66.86;100241.19;5026092;28;20104;-73
2022/06/30 05:32:40;;;;;;;5.05;4.47;;;;;;;21.36;67.37;100256.19;5018515;28;20038;-74
2022/06/30 05:35:06;;;;;;;5.35;4.53;;;;;;;21.40;66.78;100255.06;5022980;28;20511;-74
2022/06/30 05:37:32;;;;;;;5.22;4.18;;;;;;;21.43;66.09;100246.00;5028730;28;20132;-73
2022/06/30 05:39:57;;;;;;;5.03;4.22;;;;;;;21.41;65.87;100259.53;5029930;28;20034;-73
2022/06/30 05:42:22;;;;;;;4.97;4.18;;;;;;;21.42;65.69;100260.38;5027490;28;20507;-73
2022/06/30 05:44:48;;;;;;;7.00;4.45;;;;;;;21.52;65.18;100266.97;5021994;28;20545;-73
2022/06/30 05:47:13;;;;;;;7.13;5.03;;;;;;;21.64;64.52;100276.16;5025088;28;20035;-74
2022/06/30 05:49:39;;;;;;;7.63;5.72;;;;;;;21.69;64.42;100276.75;5005179;28;20073;-73
2022/06/30 05:52:04;;;;;;;6.88;4.72;;;;;;;21.75;64.79;100279.13;5027655;28;20068;-74
2022/06/30 05:54:29;;;;;;;6.07;4.30;;;;;;;21.89;64.45;100273.81;5028402;28;20029;-73
2022/06/30 05:56:55;;;;;;;6.18;5.50;;;;;;;21.95;63.87;100277.09;5023124;28;20057;-73
2022/06/30 05:59:20;;;;;;;7.47;5.63;;;;;;;21.97;63.78;100283.25;5022465;28;20117;-74
2022/06/30 06:01:46;;;;;;;7.47;5.55;;;;;;;22.09;64.10;100283.41;5023830;28;20041;-74
2022/06/30 06:04:11;;;;;;;4.95;4.10;;;;;;;22.21;63.22;100291.75;5022619;28;20045;-74
2022/06/30 06:06:37;;;;;;;5.20;4.30;;;;;;;22.30;63.21;100289.41;5028078;28;20025;-73
2022/06/30 06:09:02;;;;;;;6.35;4.70;;;;;;;22.33;62.90;100296.41;5026000;28;20421;-74
2022/06/30 06:11:30;;;;;;;5.57;4.07;;;;;;;22.36;62.14;100290.84;5023830;28;20040;-74
2022/06/30 06:13:55;;;;;;;11.18;4.78;;;;;;;22.52;61.94;100293.50;5002972;28;20116;-74
2022/06/30 06:16:20;;;;;;;9.57;6.05;;;;;;;22.67;61.48;100294.41;5023096;28;20130;-74
2022/06/30 06:18:46;;;;;;;6.03;3.80;;;;;;;22.67;60.68;100295.28;5003614;28;20487;-73
2022/06/30 06:21:11;;;;;;;6.25;3.58;;;;;;;22.55;58.66;100298.69;5024697;28;20041;-73
2022/06/30 06:23:36;;;;;;;6.40;3.78;;;;;;;22.53;61.38;100304.19;5022057;28;20034;-73
2022/06/30 06:26:02;;;;;;;5.63;3.45;;;;;;;22.59;60.84;100297.56;5006971;28;20049;-73
2022/06/30 06:31:11;;;;;;;5.10;3.58;;;;;;;22.66;60.35;100292.66;5021650;28;20041;-75
2022/06/30 06:33:38;;;;;;;5.53;3.80;;;;;;;22.60;60.17;100288.53;5023533;28;20095;-76
2022/06/30 06:36:04;;;;;;;5.57;3.67;;;;;;;22.59;60.59;100289.50;5022268;28;20476;-75
2022/06/30 06:38:29;;;;;;;9.07;5.32;;;;;;;22.73;59.66;100285.97;5022237;28;20042;-75
2022/06/30 06:40:54;;;;;;;6.00;4.30;;;;;;;22.82;59.74;100289.91;5024210;28;20482;-75
2022/06/30 06:43:20;;;;;;;5.95;4.38;;;;;;;22.91;59.74;100292.06;5020910;28;20037;-75
2022/06/30 06:45:45;;;;;;;6.00;4.13;;;;;;;22.80;59.22;100289.16;5021111;28;20400;-76
2022/06/30 06:48:11;;;;;;;6.72;4.55;;;;;;;22.69;58.81;100287.13;5024734;28;20408;-75
2022/06/30 06:50:36;;;;;;;6.63;4.20;;;;;;;22.76;59.48;100286.63;5008259;28;20412;-76
2022/06/30 06:53:03;;;;;;;5.68;3.53;;;;;;;22.76;59.42;100289.31;5026195;28;20036;-75
2022/06/30 06:55:29;;;;;;;6.68;4.40;;;;;;;22.83;59.84;100281.75;5025706;28;20037;-76
2022/06/30 06:57:55;;;;;;;9.93;6.20;;;;;;;22.86;59.13;100278.00;5027118;28;20068;-76
2022/06/30 07:00:20;;;;;;;8.88;5.85;;;;;;;22.87;60.08;100291.38;5026458;28;20065;-75
2022/06/30 07:02:46;;;;;;;8.77;5.35;;;;;;;22.72;60.76;100287.78;5021473;28;20038;-76
2022/06/30 07:05:11;;;;;;;6.80;4.47;;;;;;;22.75;60.20;100292.97;5022637;28;20041;-76
2022/06/30 07:07:37;;;;;;;9.18;4.28;;;;;;;22.61;60.74;100292.97;5023292;28;20559;-75
2022/06/30 07:10:05;;;;;;;8.43;5.15;;;;;;;22.56;61.31;100297.75;5027060;28;20389;-75
2022/06/30 07:12:31;;;;;;;7.38;4.40;;;;;;;22.64;61.26;100303.53;5020142;28;20042;-76
2022/06/30 07:14:56;;;;;;;9.18;6.10;;;;;;;22.71;60.74;100302.19;5026259;28;20029;-75
2022/06/30 07:17:21;;;;;;;7.18;4.22;;;;;;;22.79;60.65;100303.56;5022802;28;20041;-74
2022/06/30 07:19:47;;;;;;;7.88;4.65;;;;;;;22.83;60.65;100308.66;5022834;28;20038;-74
2022/06/30 07:22:13;;;;;;;6.35;4.43;;;;;;;22.95;60.64;100298.97;5024282;28;20033;-73
2022/06/30 07:24:38;;;;;;;5.65;4.03;;;;;;;23.04;60.51;100301.13;5023607;28;20136;-73
2022/06/30 07:27:04;;;;;;;7.88;4.43;;;;;;;23.16;59.91;100308.47;5023662;28;20029;-73
2022/06/30 07:29:30;;;;;;;13.25;4.80;;;;;;;23.18;60.10;100301.13;5020725;28;20041;-73
2022/06/30 07:31:56;;;;;;;6.68;4.68;;;;;;;23.10;60.71;100303.44;5020950;28;20099;-73
2022/06/30 07:34:21;;;;;;;7.43;4.60;;;;;;;23.04;60.64;100298.44;5023137;28;20489;-72
2022/06/30 07:36:47;;;;;;;9.90;5.75;;;;;;;23.22;61.12;100282.13;5027204;28;20137;-73
2022/06/30 07:39:12;;;;;;;6.90;4.93;;;;;;;23.44;60.74;100285.16;5024367;28;20121;-73
2022/06/30 07:41:37;;;;;;;7.95;5.38;;;;;;;23.60;60.25;100285.91;5027322;28;20088;-73
2022/06/30 07:44:03;;;;;;;9.75;6.55;;;;;;;23.81;60.23;100290.91;5025777;28;20038;-73
2022/06/30 07:46:29;;;;;;;8.60;5.70;;;;;;;23.94;59.76;100289.13;5027206;28;20041;-73
2022/06/30 07:48:54;;;;;;;7.50;4.53;;;;;;;23.97;59.50;100280.00;5026602;28;20072;-73
2022/06/30 07:51:20;;;;;;;11.50;6.13;;;;;;;23.93;59.64;100287.44;5023975;28;20041;-73
2022/06/30 07:53:47;;;;;;;10.70;5.75;;;;;;;23.78;60.11;100294.66;5027973;28;20117;-73
2022/06/30 07:56:13;;;;;;;9.05;7.15;;;;;;;23.86;60.19;100299.56;5027234;28;20487;-74
2022/06/30 07:58:38;;;;;;;12.02;7.38;;;;;;;23.85;60.46;100305.94;5014697;28;20073;-73
2022/06/30 08:01:04;;;;;;;10.75;7.82;;;;;;;23.96;59.93;100298.00;5019811;28;20046;-73
2022/06/30 08:03:29;;;;;;;11.40;8.73;;;;;;;24.14;59.86;100297.75;5021593;28;20025;-73
2022/06/30 08:05:55;;;;;;;13.05;8.40;;;;;;;24.46;58.67;100299.19;5021232;28;20440;-73
2022/06/30 08:08:20;;;;;;;12.40;7.75;;;;;;;24.45;58.29;100292.06;5021251;28;20117;-73
2022/06/30 08:10:45;;;;;;;13.80;9.35;;;;;;;24.52;58.01;100288.94;5027402;28;20045;-73
2022/06/30 08:13:11;;;;;;;401.58;96.38;;;;;;;24.60;57.94;100286.56;5023202;28;20025;-73
2022/06/30 08:15:36;;;;;;;14.38;10.27;;;;;;;24.73;58.10;100282.06;5020782;28;20065;-72
2022/06/30 08:18:03;;;;;;;348.15;63.67;;;;;;;24.82;57.60;100286.84;5025127;28;20069;-73
2022/06/30 08:20:29;;;;;;;14.90;10.30;;;;;;;24.95;57.37;100284.16;5019518;28;20111;-73
2022/06/30 08:22:54;;;;;;;14.82;9.27;;;;;;;25.19;56.98;100288.81;5023185;28;20466;-73
2022/06/30 08:25:20;;;;;;;22.80;16.35;;;;;;;25.38;56.34;100283.81;5024965;28;20041;-73
2022/06/30 08:27:45;;;;;;;18.02;11.20;;;;;;;25.40;55.45;100291.84;5017992;28;20037;-73
2022/06/30 08:30:10;;;;;;;30.33;27.13;;;;;;;25.50;55.52;100288.34;5021341;28;20416;-73
2022/06/30 08:32:36;;;;;;;15.70;8.70;;;;;;;25.53;55.62;100284.56;5019777;28;20428;-73
2022/06/30 08:35:02;;;;;;;20.83;7.55;;;;;;;25.61;55.48;100282.16;5021143;28;20034;-73
2022/06/30 08:37:27;;;;;;;164.93;42.22;;;;;;;25.63;55.38;100288.34;5020983;28;20400;-73
2022/06/30 08:42:37;;;;;;;17.95;15.30;;;;;;;25.69;55.33;100282.47;5016725;28;20037;-73
2022/06/30 08:45:17;;;;;;;16.77;10.68;;;;;;;25.88;54.79;100286.56;5021680;28;20095;-73
2022/06/30 08:47:45;;;;;;;58.58;19.10;;;;;;;25.90;54.59;100277.34;5020690;28;20038;-73
2022/06/30 08:50:13;;;;;;;13.45;7.30;;;;;;;26.07;54.77;100273.41;5020320;28;20034;-73
2022/06/30 08:52:46;;;;;;;12.25;7.05;;;;;;;26.38;53.73;100268.34;5019374;28;20045;-73
2022/06/30 08:55:14;;;;;;;11.73;6.20;;;;;;;26.65;53.89;100271.69;5022456;28;20029;-73
2022/06/30 08:57:41;;;;;;;13.93;6.65;;;;;;;26.80;52.29;100264.22;5024330;28;20033;-73
2022/06/30 09:00:07;;;;;;;11.00;6.53;;;;;;;26.76;52.12;100270.00;5021295;28;20041;-73
2022/06/30 09:02:33;;;;;;;15.70;8.02;;;;;;;26.63;52.50;100267.38;5022413;28;20392;-73
2022/06/30 09:04:58;;;;;;;11.77;6.22;;;;;;;26.71;52.94;100264.06;5020486;28;20034;-73
2022/06/30 09:07:24;;;;;;;9.25;6.07;;;;;;;26.90;53.21;100256.22;5023548;28;20041;-73
2022/06/30 09:09:49;;;;;;;13.65;7.90;;;;;;;27.22;52.27;100253.72;5021696;28;20036;-73
2022/06/30 09:12:16;;;;;;;19.35;11.23;;;;;;;27.47;50.87;100255.28;5024607;28;20091;-73
2022/06/30 09:14:45;;;;;;;15.32;9.85;;;;;;;27.36;51.37;100255.31;5021669;28;20503;-73
2022/06/30 09:17:17;;;;;;;12.27;7.88;;;;;;;27.57;50.64;100251.84;5022190;28;20048;-73
2022/06/30 09:19:54;;;;;;;13.48;7.18;;;;;;;27.37;50.38;100243.47;5024703;28;20041;-73
2022/06/30 09:22:22;;;;;;;11.13;7.32;;;;;;;27.31;51.05;100242.13;5025892;28;20142;-73
2022/06/30 09:25:22;;;;;;;10.50;7.35;;;;;;;27.27;50.36;100237.06;5025109;28;20128;-73
2022/06/30 09:27:48;;;;;;;12.00;6.93;;;;;;;27.40;50.69;100234.22;5011320;28;20077;-73
2022/06/30 09:30:21;;;;;;;12.40;7.10;;;;;;;27.45;50.36;100243.69;5026660;28;20056;-73
2022/06/30 09:33:13;;;;;;;10.45;6.80;;;;;;;27.47;49.99;100236.31;5022152;28;20044;-73
2022/06/30 09:35:40;;;;;;;9.63;5.43;;;;;;;27.66;50.71;100238.38;5026610;28;20112;-73
2022/06/30 09:38:12;;;;;;;12.98;8.57;;;;;;;27.92;50.04;100230.81;5025478;28;20056;-74
2022/06/30 09:41:02;;;;;;;14.57;10.38;;;;;;;28.09;49.58;100224.00;5011586;28;20107;-73
2022/06/30 09:43:36;;;;;;;12.95;8.20;;;;;;;28.20;49.03;100223.09;5027832;28;20163;-73
2022/06/30 09:46:03;;;;;;;19.25;8.85;;;;;;;28.39;48.85;100228.66;5024450;28;20028;-73
2022/06/30 09:48:31;;;;;;;17.67;10.60;;;;;;;28.69;48.92;100223.44;5026964;28;20052;-73
2022/06/30 09:51:00;;;;;;;8.88;6.78;;;;;;;28.84;48.47;100216.69;5024777;28;20039;-73
2022/06/30 09:53:26;;;;;;;10.93;7.07;;;;;;;28.71;47.52;100219.59;5028267;28;20120;-74
2022/06/30 09:55:51;;;;;;;10.32;6.40;;;;;;;28.45;47.69;100221.84;5029779;28;20120;-74
2022/06/30 09:58:38;;;;;;;11.43;6.53;;;;;;;28.46;47.50;100222.75;5028388;28;20035;-73
2022/06/30 10:01:04;;;;;;;10.88;6.85;;;;;;;28.59;48.13;100217.97;5028896;28;20042;-73
2022/06/30 10:03:29;;;;;;;13.02;7.32;;;;;;;28.60;48.28;100214.25;5029339;28;20111;-73
2022/06/30 10:06:13;;;;;;;9.48;6.65;;;;;;;28.93;46.96;100212.31;5030289;28;20036;-74
2022/06/30 10:08:39;;;;;;;13.18;9.60;;;;;;;29.12;46.55;100209.69;5023808;28;20057;-74
2022/06/30 10:11:06;;;;;;;12.55;8.25;;;;;;;29.44;45.95;100212.25;5026628;28;20033;-74
2022/06/30 10:13:37;;;;;;;10.65;7.70;;;;;;;29.59;46.21;100210.00;5019032;28;20543;-74
2022/06/30 10:16:04;;;;;;;11.07;7.03;;;;;;;29.57;44.82;100212.00;5021861;28;20069;-74
2022/06/30 10:18:30;;;;;;;11.73;7.43;;;;;;;29.99;45.82;100211.78;5022864;28;20040;-74
2022/06/30 10:20:56;;;;;;;10.45;7.30;;;;;;;30.51;44.45;100214.25;5022482;28;20112;-74
2022/06/30 10:23:23;;;;;;;14.05;8.32;;;;;;;31.05;43.70;100211.81;5026291;28;20371;-74
2022/06/30 10:25:52;;;;;;;12.35;5.72;;;;;;;31.29;41.71;100214.03;5024016;28;20034;-74
2022/06/30 10:28:19;;;;;;;18.30;10.00;;;;;;;31.34;43.06;100200.81;5023101;28;20037;-74
2022/06/30 10:31:22;;;;;;;10.30;6.50;;;;;;;31.06;41.76;100200.78;5022603;28;20088;-74
2022/06/30 10:34:12;;;;;;;9.52;5.70;;;;;;;31.11;42.09;100200.34;5024049;28;20367;-73
2022/06/30 10:36:47;;;;;;;8.90;5.68;;;;;;;31.20;42.16;100207.59;5022842;28;20048;-74
2022/06/30 10:39:30;;;;;;;12.40;7.88;;;;;;;30.91;41.84;100194.09;5022288;28;20029;-74
2022/06/30 10:41:56;;;;;;;11.57;7.28;;;;;;;31.18;43.00;100201.47;5025800;28;20064;-74
2022/06/30 10:44:25;;;;;;;9.70;5.15;;;;;;;31.27;41.99;100203.25;5021574;28;20126;-74
2022/06/30 10:46:51;;;;;;;7.60;5.13;;;;;;;31.10;41.48;100198.59;5026678;28;20176;-74
2022/06/30 10:49:17;;;;;;;8.15;5.72;;;;;;;30.65;42.60;100199.28;5027426;28;20044;-74
2022/06/30 10:51:44;;;;;;;11.23;6.82;;;;;;;30.95;42.62;100193.66;5020748;28;20046;-74
2022/06/30 10:54:10;;;;;;;9.05;6.72;;;;;;;31.43;41.79;100194.44;5024498;28;20396;-74
2022/06/30 10:56:53;;;;;;;10.20;5.78;;;;;;;31.72;40.15;100187.97;5028896;28;20104;-75
2022/06/30 10:59:41;;;;;;;9.38;5.90;;;;;;;31.90;39.60;100190.69;5021508;28;20508;-75
2022/06/30 11:02:07;;;;;;;8.18;5.80;;;;;;;32.12;40.31;100190.25;5021098;28;20080;-75
2022/06/30 11:04:33;;;;;;;9.87;6.00;;;;;;;32.20;40.04;100181.25;5023441;28;20084;-75
2022/06/30 11:07:01;;;;;;;11.85;6.68;;;;;;;32.41;39.67;100186.38;5026969;28;20287;-75
2022/06/30 11:09:44;;;;;;;8.88;7.07;;;;;;;32.90;37.36;100184.00;5022554;28;20116;-75
2022/06/30 11:12:37;;;;;;;9.38;4.75;;;;;;;33.16;37.01;100179.38;5021725;28;20041;-75
2022/06/30 11:15:03;;;;;;;10.38;6.22;;;;;;;32.97;37.42;100168.69;5012804;28;20057;-75
2022/06/30 11:17:29;;;;;;;8.85;6.90;;;;;;;32.95;37.69;100162.50;5021012;28;20404;-74
2022/06/30 11:20:10;;;;;;;9.95;6.95;;;;;;;33.12;37.45;100167.06;5024521;28;20040;-75
2022/06/30 11:22:36;;;;;;;8.80;6.38;;;;;;;33.44;37.54;100162.75;5021093;28;20092;-75
2022/06/30 11:25:04;;;;;;;12.77;8.68;;;;;;;33.44;37.17;100162.75;5024082;28;20033;-75
2022/06/30 11:27:32;;;;;;;7.47;4.90;;;;;;;33.47;36.80;100159.66;5020938;28;20088;-75
2022/06/30 11:30:10;;;;;;;10.90;6.43;;;;;;;33.30;36.12;100161.50;5022426;28;20163;-75
2022/06/30 11:32:36;;;;;;;10.57;7.78;;;;;;;33.44;37.44;100149.06;5001272;28;20069;-75
2022/06/30 11:35:02;;;;;;;14.25;10.73;;;;;;;33.51;37.04;100152.84;5030697;28;20535;-75